sensor_id;sensor_type;location;lat;lon;timestamp;P1;durP1;ratioP1;P2;durP2;ratioP2
47531;SDS011;33273;52.254;7.988;2023-05-16T00:01:01;7.95;;;3.70;;
47531;SDS011;33273;52.254;7.988;2023-05-16T00:03:27;4.82;;;2.92;;
47531;SDS011;33273;52.254;7.988;2023-05-16T00:05:55;7.93;;;3.38;;
47531;SDS011;33273;52.254;7.988;2023-05-16T00:08:22;4.97;;;3.22;;
47531;SDS011;33273;52.254;7.988;2023-05-16T00:10:48;4.60;;;2.90;;
47531;SDS011;33273;52.254;7.988;2023-05-16T00:13:15;4.60;;;2.60;;
47531;SDS011;33273;52.254;7.988;2023-05-16T00:15:43;3.83;;;2.65;;
47531;SDS011;33273;52.254;7.988;2023-05-16T00:18:11;4.82;;;2.90;;
47531;SDS011;33273;52.254;7.988;2023-05-16T00:20:40;4.50;;;3.22;;
47531;SDS011;33273;52.254;7.988;2023-05-16T00:23:06;7.25;;;3.13;;
47531;SDS011;33273;52.254;7.988;2023-05-16T00:25:32;6.57;;;3.00;;
47531;SDS011;33273;52.254;7.988;2023-05-16T00:27:58;5.60;;;3.17;;
47531;SDS011;33273;52.254;7.988;2023-05-16T00:30:23;6.93;;;2.80;;
47531;SDS011;33273;52.254;7.988;2023-05-16T00:32:50;5.35;;;2.80;;
47531;SDS011;33273;52.254;7.988;2023-05-16T00:37:42;6.78;;;3.10;;
47531;SDS011;33273;52.254;7.988;2023-05-16T00:40:08;5.10;;;3.53;;
47531;SDS011;33273;52.254;7.988;2023-05-16T00:42:35;5.18;;;3.38;;
47531;SDS011;33273;52.254;7.988;2023-05-16T00:45:02;4.47;;;3.17;;
47531;SDS011;33273;52.254;7.988;2023-05-16T00:47:29;4.75;;;2.63;;
47531;SDS011;33273;52.254;7.988;2023-05-16T00:49:55;6.53;;;2.72;;
47531;SDS011;33273;52.254;7.988;2023-05-16T00:52:21;5.43;;;2.92;;
47531;SDS011;33273;52.254;7.988;2023-05-16T00:54:47;5.15;;;2.40;;
47531;SDS011;33273;52.254;7.988;2023-05-16T00:57:15;9.90;;;2.72;;
47531;SDS011;33273;52.254;7.988;2023-05-16T01:02:09;6.97;;;2.88;;
47531;SDS011;33273;52.254;7.988;2023-05-16T01:04:37;14.88;;;2.90;;
47531;SDS011;33273;52.254;7.988;2023-05-16T01:07:03;6.10;;;2.75;;
47531;SDS011;33273;52.254;7.988;2023-05-16T01:09:32;6.55;;;2.85;;
47531;SDS011;33273;52.254;7.988;2023-05-16T01:25:38;5.77;;;2.40;;
47531;SDS011;33273;52.254;7.988;2023-05-16T01:28:09;6.50;;;2.72;;
47531;SDS011;33273;52.254;7.988;2023-05-16T01:30:41;7.50;;;2.90;;
47531;SDS011;33273;52.254;7.988;2023-05-16T01:33:07;10.93;;;3.03;;
47531;SDS011;33273;52.254;7.988;2023-05-16T01:38:24;6.72;;;2.67;;
47531;SDS011;33273;52.254;7.988;2023-05-16T01:41:18;6.70;;;2.90;;
47531;SDS011;33273;52.254;7.988;2023-05-16T01:43:56;10.73;;;3.10;;
47531;SDS011;33273;52.254;7.988;2023-05-16T01:46:30;8.50;;;2.30;;
47531;SDS011;33273;52.254;7.988;2023-05-16T01:49:14;4.88;;;2.28;;
47531;SDS011;33273;52.254;7.988;2023-05-16T01:51:41;5.63;;;2.00;;
47531;SDS011;33273;52.254;7.988;2023-05-16T01:54:13;9.35;;;3.05;;
47531;SDS011;33273;52.254;7.988;2023-05-16T01:56:46;8.57;;;2.60;;
47531;SDS011;33273;52.254;7.988;2023-05-16T01:59:18;7.40;;;4.00;;
47531;SDS011;33273;52.254;7.988;2023-05-16T02:01:46;5.88;;;2.45;;
47531;SDS011;33273;52.254;7.988;2023-05-16T02:04:12;4.88;;;2.67;;
47531;SDS011;33273;52.254;7.988;2023-05-16T02:06:40;6.78;;;2.30;;
47531;SDS011;33273;52.254;7.988;2023-05-16T02:09:08;6.53;;;2.22;;
47531;SDS011;33273;52.254;7.988;2023-05-16T02:11:34;5.22;;;2.03;;
47531;SDS011;33273;52.254;7.988;2023-05-16T02:14:00;6.53;;;2.70;;
47531;SDS011;33273;52.254;7.988;2023-05-16T02:16:28;7.03;;;2.20;;
47531;SDS011;33273;52.254;7.988;2023-05-16T02:18:57;5.50;;;2.05;;
47531;SDS011;33273;52.254;7.988;2023-05-16T02:21:23;9.57;;;2.20;;
47531;SDS011;33273;52.254;7.988;2023-05-16T02:23:49;10.82;;;2.78;;
47531;SDS011;33273;52.254;7.988;2023-05-16T02:26:15;4.17;;;2.20;;
47531;SDS011;33273;52.254;7.988;2023-05-16T02:28:41;10.83;;;2.67;;
47531;SDS011;33273;52.254;7.988;2023-05-16T02:31:06;13.17;;;2.53;;
47531;SDS011;33273;52.254;7.988;2023-05-16T02:33:34;7.72;;;2.35;;
47531;SDS011;33273;52.254;7.988;2023-05-16T02:36:02;8.93;;;2.38;;
47531;SDS011;33273;52.254;7.988;2023-05-16T02:38:28;6.28;;;2.78;;
47531;SDS011;33273;52.254;7.988;2023-05-16T02:40:54;8.83;;;2.50;;
47531;SDS011;33273;52.254;7.988;2023-05-16T02:43:20;12.30;;;2.23;;
47531;SDS011;33273;52.254;7.988;2023-05-16T02:45:47;9.05;;;3.00;;
47531;SDS011;33273;52.254;7.988;2023-05-16T02:48:15;7.90;;;2.53;;
47531;SDS011;33273;52.254;7.988;2023-05-16T02:50:42;8.75;;;2.53;;
47531;SDS011;33273;52.254;7.988;2023-05-16T02:53:10;9.63;;;2.50;;
47531;SDS011;33273;52.254;7.988;2023-05-16T02:55:35;9.33;;;3.30;;
47531;SDS011;33273;52.254;7.988;2023-05-16T02:58:01;10.60;;;3.43;;
47531;SDS011;33273;52.254;7.988;2023-05-16T03:00:27;8.80;;;2.20;;
47531;SDS011;33273;52.254;7.988;2023-05-16T03:02:55;12.13;;;2.70;;
47531;SDS011;33273;52.254;7.988;2023-05-16T03:05:21;6.85;;;2.55;;
47531;SDS011;33273;52.254;7.988;2023-05-16T03:07:46;8.77;;;2.97;;
47531;SDS011;33273;52.254;7.988;2023-05-16T03:10:12;9.70;;;2.93;;
47531;SDS011;33273;52.254;7.988;2023-05-16T03:12:38;7.87;;;2.70;;
47531;SDS011;33273;52.254;7.988;2023-05-16T03:15:04;11.30;;;2.63;;
47531;SDS011;33273;52.254;7.988;2023-05-16T03:17:34;8.10;;;2.35;;
47531;SDS011;33273;52.254;7.988;2023-05-16T03:20:00;5.40;;;2.78;;
47531;SDS011;33273;52.254;7.988;2023-05-16T03:22:28;9.98;;;2.95;;
47531;SDS011;33273;52.254;7.988;2023-05-16T03:24:53;7.53;;;2.40;;
47531;SDS011;33273;52.254;7.988;2023-05-16T03:27:21;12.20;;;3.00;;
47531;SDS011;33273;52.254;7.988;2023-05-16T03:29:48;10.32;;;3.42;;
47531;SDS011;33273;52.254;7.988;2023-05-16T03:32:15;14.07;;;3.45;;
47531;SDS011;33273;52.254;7.988;2023-05-16T03:34:41;11.93;;;3.30;;
47531;SDS011;33273;52.254;7.988;2023-05-16T03:37:07;8.63;;;3.07;;
47531;SDS011;33273;52.254;7.988;2023-05-16T03:39:35;10.23;;;3.17;;
47531;SDS011;33273;52.254;7.988;2023-05-16T03:42:00;16.07;;;3.77;;
47531;SDS011;33273;52.254;7.988;2023-05-16T03:44:26;17.83;;;3.83;;
47531;SDS011;33273;52.254;7.988;2023-05-16T03:46:52;10.37;;;2.67;;
47531;SDS011;33273;52.254;7.988;2023-05-16T03:49:22;10.45;;;2.90;;
47531;SDS011;33273;52.254;7.988;2023-05-16T03:51:52;7.90;;;2.83;;
47531;SDS011;33273;52.254;7.988;2023-05-16T03:54:18;10.65;;;3.03;;
47531;SDS011;33273;52.254;7.988;2023-05-16T03:56:46;13.63;;;3.13;;
47531;SDS011;33273;52.254;7.988;2023-05-16T03:59:12;15.47;;;3.07;;
47531;SDS011;33273;52.254;7.988;2023-05-16T04:01:37;15.87;;;3.10;;
47531;SDS011;33273;52.254;7.988;2023-05-16T04:04:07;11.85;;;3.42;;
47531;SDS011;33273;52.254;7.988;2023-05-16T04:06:32;10.93;;;3.30;;
47531;SDS011;33273;52.254;7.988;2023-05-16T04:09:00;12.07;;;2.70;;
47531;SDS011;33273;52.254;7.988;2023-05-16T04:11:27;14.70;;;3.17;;
47531;SDS011;33273;52.254;7.988;2023-05-16T04:13:53;11.77;;;2.90;;
47531;SDS011;33273;52.254;7.988;2023-05-16T04:16:18;11.20;;;2.97;;
47531;SDS011;33273;52.254;7.988;2023-05-16T04:18:47;12.18;;;3.33;;
47531;SDS011;33273;52.254;7.988;2023-05-16T04:21:13;15.90;;;3.17;;
47531;SDS011;33273;52.254;7.988;2023-05-16T04:23:39;14.55;;;3.35;;
47531;SDS011;33273;52.254;7.988;2023-05-16T04:26:06;15.63;;;2.90;;
47531;SDS011;33273;52.254;7.988;2023-05-16T04:28:32;11.27;;;3.28;;
47531;SDS011;33273;52.254;7.988;2023-05-16T04:30:57;18.43;;;3.57;;
47531;SDS011;33273;52.254;7.988;2023-05-16T04:33:27;14.40;;;3.50;;
47531;SDS011;33273;52.254;7.988;2023-05-16T04:35:53;29.25;;;3.80;;
47531;SDS011;33273;52.254;7.988;2023-05-16T04:38:19;12.33;;;3.10;;
47531;SDS011;33273;52.254;7.988;2023-05-16T04:40:45;10.20;;;2.80;;
47531;SDS011;33273;52.254;7.988;2023-05-16T04:43:14;9.30;;;2.70;;
47531;SDS011;33273;52.254;7.988;2023-05-16T04:45:41;9.05;;;2.70;;
47531;SDS011;33273;52.254;7.988;2023-05-16T04:48:07;11.70;;;4.05;;
47531;SDS011;33273;52.254;7.988;2023-05-16T04:50:33;17.33;;;3.80;;
47531;SDS011;33273;52.254;7.988;2023-05-16T04:52:59;8.88;;;2.83;;
47531;SDS011;33273;52.254;7.988;2023-05-16T04:55:24;10.23;;;3.77;;
47531;SDS011;33273;52.254;7.988;2023-05-16T04:57:50;12.60;;;3.20;;
47531;SDS011;33273;52.254;7.988;2023-05-16T05:00:18;9.70;;;3.67;;
47531;SDS011;33273;52.254;7.988;2023-05-16T05:02:45;14.00;;;2.88;;
47531;SDS011;33273;52.254;7.988;2023-05-16T05:05:11;13.48;;;3.08;;
47531;SDS011;33273;52.254;7.988;2023-05-16T05:07:38;14.52;;;3.08;;
47531;SDS011;33273;52.254;7.988;2023-05-16T05:10:05;10.73;;;2.97;;
47531;SDS011;33273;52.254;7.988;2023-05-16T05:12:34;12.48;;;3.38;;
47531;SDS011;33273;52.254;7.988;2023-05-16T05:15:01;14.80;;;3.58;;
47531;SDS011;33273;52.254;7.988;2023-05-16T05:17:29;15.10;;;2.88;;
47531;SDS011;33273;52.254;7.988;2023-05-16T05:19:56;13.80;;;2.90;;
47531;SDS011;33273;52.254;7.988;2023-05-16T05:22:22;8.45;;;2.28;;
47531;SDS011;33273;52.254;7.988;2023-05-16T05:24:48;11.23;;;2.70;;
47531;SDS011;33273;52.254;7.988;2023-05-16T05:27:14;9.98;;;2.40;;
47531;SDS011;33273;52.254;7.988;2023-05-16T05:29:40;5.37;;;2.17;;
47531;SDS011;33273;52.254;7.988;2023-05-16T05:32:06;11.10;;;2.53;;
47531;SDS011;33273;52.254;7.988;2023-05-16T05:34:32;10.45;;;2.78;;
47531;SDS011;33273;52.254;7.988;2023-05-16T05:36:58;10.38;;;4.03;;
47531;SDS011;33273;52.254;7.988;2023-05-16T05:39:24;11.13;;;2.15;;
47531;SDS011;33273;52.254;7.988;2023-05-16T05:41:50;12.80;;;2.85;;
47531;SDS011;33273;52.254;7.988;2023-05-16T05:44:16;8.52;;;2.47;;
47531;SDS011;33273;52.254;7.988;2023-05-16T05:46:42;8.43;;;2.17;;
47531;SDS011;33273;52.254;7.988;2023-05-16T05:49:09;6.10;;;2.08;;
47531;SDS011;33273;52.254;7.988;2023-05-16T05:51:35;10.18;;;2.30;;
47531;SDS011;33273;52.254;7.988;2023-05-16T05:54:01;6.82;;;2.03;;
47531;SDS011;33273;52.254;7.988;2023-05-16T05:58:55;5.83;;;1.77;;
47531;SDS011;33273;52.254;7.988;2023-05-16T06:01:21;8.57;;;2.20;;
47531;SDS011;33273;52.254;7.988;2023-05-16T06:03:47;9.80;;;2.60;;
47531;SDS011;33273;52.254;7.988;2023-05-16T06:06:13;8.40;;;2.53;;
47531;SDS011;33273;52.254;7.988;2023-05-16T06:08:40;7.55;;;1.80;;
47531;SDS011;33273;52.254;7.988;2023-05-16T06:11:06;9.20;;;2.55;;
47531;SDS011;33273;52.254;7.988;2023-05-16T06:13:32;7.90;;;1.75;;
47531;SDS011;33273;52.254;7.988;2023-05-16T06:15:58;7.85;;;2.25;;
47531;SDS011;33273;52.254;7.988;2023-05-16T06:18:24;10.95;;;2.20;;
47531;SDS011;33273;52.254;7.988;2023-05-16T06:20:51;11.27;;;2.08;;
47531;SDS011;33273;52.254;7.988;2023-05-16T06:23:17;10.30;;;2.08;;
47531;SDS011;33273;52.254;7.988;2023-05-16T06:25:43;9.55;;;2.50;;
47531;SDS011;33273;52.254;7.988;2023-05-16T06:28:09;11.50;;;2.53;;
47531;SDS011;33273;52.254;7.988;2023-05-16T06:30:37;7.20;;;2.03;;
47531;SDS011;33273;52.254;7.988;2023-05-16T06:33:03;6.95;;;1.98;;
47531;SDS011;33273;52.254;7.988;2023-05-16T06:35:35;16.75;;;2.97;;
47531;SDS011;33273;52.254;7.988;2023-05-16T06:38:24;8.93;;;2.13;;
47531;SDS011;33273;52.254;7.988;2023-05-16T06:41:07;8.70;;;2.30;;
47531;SDS011;33273;52.254;7.988;2023-05-16T06:43:39;8.43;;;2.10;;
47531;SDS011;33273;52.254;7.988;2023-05-16T06:46:09;10.38;;;2.67;;
47531;SDS011;33273;52.254;7.988;2023-05-16T06:48:36;10.98;;;2.20;;
47531;SDS011;33273;52.254;7.988;2023-05-16T06:51:02;8.05;;;2.67;;
47531;SDS011;33273;52.254;7.988;2023-05-16T06:53:28;7.30;;;2.38;;
47531;SDS011;33273;52.254;7.988;2023-05-16T06:55:55;10.80;;;3.15;;
47531;SDS011;33273;52.254;7.988;2023-05-16T06:58:21;11.35;;;2.58;;
47531;SDS011;33273;52.254;7.988;2023-05-16T07:00:48;9.43;;;2.63;;
47531;SDS011;33273;52.254;7.988;2023-05-16T07:03:14;11.10;;;2.45;;
47531;SDS011;33273;52.254;7.988;2023-05-16T07:05:40;7.43;;;1.95;;
47531;SDS011;33273;52.254;7.988;2023-05-16T07:08:10;9.52;;;2.03;;
47531;SDS011;33273;52.254;7.988;2023-05-16T07:10:36;3.85;;;1.58;;
47531;SDS011;33273;52.254;7.988;2023-05-16T07:15:29;8.07;;;1.70;;
47531;SDS011;33273;52.254;7.988;2023-05-16T07:17:57;6.18;;;1.70;;
47531;SDS011;33273;52.254;7.988;2023-05-16T07:20:23;11.85;;;1.95;;
47531;SDS011;33273;52.254;7.988;2023-05-16T07:22:50;10.48;;;2.03;;
47531;SDS011;33273;52.254;7.988;2023-05-16T07:25:16;5.22;;;1.65;;
47531;SDS011;33273;52.254;7.988;2023-05-16T07:27:42;5.47;;;2.13;;
47531;SDS011;33273;52.254;7.988;2023-05-16T07:30:10;8.40;;;1.75;;
47531;SDS011;33273;52.254;7.988;2023-05-16T07:32:37;9.07;;;1.88;;
47531;SDS011;33273;52.254;7.988;2023-05-16T07:35:03;10.80;;;2.10;;
47531;SDS011;33273;52.254;7.988;2023-05-16T07:37:29;7.82;;;2.20;;
47531;SDS011;33273;52.254;7.988;2023-05-16T07:39:56;5.95;;;1.67;;
47531;SDS011;33273;52.254;7.988;2023-05-16T07:42:22;6.80;;;2.00;;
47531;SDS011;33273;52.254;7.988;2023-05-16T07:44:49;6.45;;;2.22;;
47531;SDS011;33273;52.254;7.988;2023-05-16T07:47:24;9.30;;;1.70;;
47531;SDS011;33273;52.254;7.988;2023-05-16T07:49:49;8.30;;;1.53;;
47531;SDS011;33273;52.254;7.988;2023-05-16T07:52:15;9.23;;;2.70;;
47531;SDS011;33273;52.254;7.988;2023-05-16T07:54:41;11.60;;;2.20;;
47531;SDS011;33273;52.254;7.988;2023-05-16T07:57:07;9.67;;;2.10;;
47531;SDS011;33273;52.254;7.988;2023-05-16T07:59:34;8.07;;;1.83;;
47531;SDS011;33273;52.254;7.988;2023-05-16T08:02:00;5.47;;;1.55;;
47531;SDS011;33273;52.254;7.988;2023-05-16T08:04:26;7.68;;;2.00;;
47531;SDS011;33273;52.254;7.988;2023-05-16T08:06:52;7.35;;;2.05;;
47531;SDS011;33273;52.254;7.988;2023-05-16T08:09:18;5.30;;;1.60;;
47531;SDS011;33273;52.254;7.988;2023-05-16T08:11:43;7.00;;;1.67;;
47531;SDS011;33273;52.254;7.988;2023-05-16T08:14:10;4.60;;;1.52;;
47531;SDS011;33273;52.254;7.988;2023-05-16T08:16:36;4.30;;;1.52;;
47531;SDS011;33273;52.254;7.988;2023-05-16T08:19:02;6.53;;;1.80;;
47531;SDS011;33273;52.254;7.988;2023-05-16T08:21:28;7.00;;;1.77;;
47531;SDS011;33273;52.254;7.988;2023-05-16T08:23:56;6.97;;;1.67;;
47531;SDS011;33273;52.254;7.988;2023-05-16T08:26:22;4.53;;;1.70;;
47531;SDS011;33273;52.254;7.988;2023-05-16T08:28:48;5.47;;;1.50;;
47531;SDS011;33273;52.254;7.988;2023-05-16T08:31:14;8.27;;;1.70;;
47531;SDS011;33273;52.254;7.988;2023-05-16T08:33:40;9.13;;;1.77;;
47531;SDS011;33273;52.254;7.988;2023-05-16T08:36:08;7.53;;;1.67;;
47531;SDS011;33273;52.254;7.988;2023-05-16T08:38:34;10.95;;;2.35;;
47531;SDS011;33273;52.254;7.988;2023-05-16T08:41:00;6.50;;;2.17;;
47531;SDS011;33273;52.254;7.988;2023-05-16T08:43:26;5.75;;;2.30;;
47531;SDS011;33273;52.254;7.988;2023-05-16T08:48:19;6.55;;;1.45;;
47531;SDS011;33273;52.254;7.988;2023-05-16T08:50:48;7.00;;;2.30;;
47531;SDS011;33273;52.254;7.988;2023-05-16T08:53:16;5.30;;;1.42;;
47531;SDS011;33273;52.254;7.988;2023-05-16T08:55:48;4.43;;;1.63;;
47531;SDS011;33273;52.254;7.988;2023-05-16T08:58:15;4.70;;;1.25;;
47531;SDS011;33273;52.254;7.988;2023-05-16T09:00:42;8.93;;;1.73;;
47531;SDS011;33273;52.254;7.988;2023-05-16T09:03:08;5.43;;;1.45;;
47531;SDS011;33273;52.254;7.988;2023-05-16T09:05:35;7.50;;;1.52;;
47531;SDS011;33273;52.254;7.988;2023-05-16T09:08:02;7.40;;;1.60;;
47531;SDS011;33273;52.254;7.988;2023-05-16T09:10:28;8.75;;;1.90;;
47531;SDS011;33273;52.254;7.988;2023-05-16T09:12:54;5.57;;;1.48;;
47531;SDS011;33273;52.254;7.988;2023-05-16T09:15:20;5.97;;;1.50;;
47531;SDS011;33273;52.254;7.988;2023-05-16T09:17:46;8.43;;;1.83;;
47531;SDS011;33273;52.254;7.988;2023-05-16T09:22:49;4.85;;;1.58;;
47531;SDS011;33273;52.254;7.988;2023-05-16T09:25:25;5.05;;;1.40;;
47531;SDS011;33273;52.254;7.988;2023-05-16T09:27:53;3.72;;;1.60;;
47531;SDS011;33273;52.254;7.988;2023-05-16T09:30:20;6.40;;;1.63;;
47531;SDS011;33273;52.254;7.988;2023-05-16T09:32:50;7.25;;;1.58;;
47531;SDS011;33273;52.254;7.988;2023-05-16T09:35:17;3.53;;;1.40;;
47531;SDS011;33273;52.254;7.988;2023-05-16T09:37:54;3.45;;;1.25;;
47531;SDS011;33273;52.254;7.988;2023-05-16T09:40:21;7.13;;;1.77;;
47531;SDS011;33273;52.254;7.988;2023-05-16T09:43:01;3.20;;;1.20;;
47531;SDS011;33273;52.254;7.988;2023-05-16T09:45:31;3.33;;;1.15;;
47531;SDS011;33273;52.254;7.988;2023-05-16T09:48:03;6.60;;;1.85;;
47531;SDS011;33273;52.254;7.988;2023-05-16T09:50:31;3.38;;;1.23;;
47531;SDS011;33273;52.254;7.988;2023-05-16T09:52:58;4.60;;;1.42;;
47531;SDS011;33273;52.254;7.988;2023-05-16T09:55:24;8.35;;;1.30;;
47531;SDS011;33273;52.254;7.988;2023-05-16T09:57:50;6.90;;;1.88;;
47531;SDS011;33273;52.254;7.988;2023-05-16T10:00:16;8.40;;;1.97;;
47531;SDS011;33273;52.254;7.988;2023-05-16T10:02:42;9.75;;;2.13;;
47531;SDS011;33273;52.254;7.988;2023-05-16T10:05:08;5.53;;;1.55;;
47531;SDS011;33273;52.254;7.988;2023-05-16T10:07:34;3.30;;;1.67;;
47531;SDS011;33273;52.254;7.988;2023-05-16T10:10:05;5.03;;;1.35;;
47531;SDS011;33273;52.254;7.988;2023-05-16T10:12:35;3.50;;;1.17;;
47531;SDS011;33273;52.254;7.988;2023-05-16T10:15:03;2.97;;;1.17;;
47531;SDS011;33273;52.254;7.988;2023-05-16T10:17:31;5.53;;;1.40;;
47531;SDS011;33273;52.254;7.988;2023-05-16T10:20:04;4.32;;;1.60;;
47531;SDS011;33273;52.254;7.988;2023-05-16T10:22:33;5.95;;;2.30;;
47531;SDS011;33273;52.254;7.988;2023-05-16T10:25:07;3.40;;;1.20;;
47531;SDS011;33273;52.254;7.988;2023-05-16T10:27:47;4.53;;;1.45;;
47531;SDS011;33273;52.254;7.988;2023-05-16T10:30:14;3.70;;;1.23;;
47531;SDS011;33273;52.254;7.988;2023-05-16T10:32:41;6.28;;;1.30;;
47531;SDS011;33273;52.254;7.988;2023-05-16T10:35:08;5.22;;;1.33;;
47531;SDS011;33273;52.254;7.988;2023-05-16T10:37:35;6.15;;;1.70;;
47531;SDS011;33273;52.254;7.988;2023-05-16T10:40:02;8.18;;;1.67;;
47531;SDS011;33273;52.254;7.988;2023-05-16T10:42:31;6.43;;;1.52;;
47531;SDS011;33273;52.254;7.988;2023-05-16T10:48:07;4.82;;;1.65;;
47531;SDS011;33273;52.254;7.988;2023-05-16T10:53:13;4.75;;;1.33;;
47531;SDS011;33273;52.254;7.988;2023-05-16T10:55:43;3.58;;;1.48;;
47531;SDS011;33273;52.254;7.988;2023-05-16T10:58:21;5.03;;;1.30;;
47531;SDS011;33273;52.254;7.988;2023-05-16T11:01:07;4.85;;;1.25;;
47531;SDS011;33273;52.254;7.988;2023-05-16T11:06:25;4.15;;;1.60;;
47531;SDS011;33273;52.254;7.988;2023-05-16T11:14:08;6.28;;;1.10;;
47531;SDS011;33273;52.254;7.988;2023-05-16T11:17:10;4.22;;;1.02;;
47531;SDS011;33273;52.254;7.988;2023-05-16T11:19:42;3.97;;;1.13;;
47531;SDS011;33273;52.254;7.988;2023-05-16T11:25:00;3.80;;;1.20;;
47531;SDS011;33273;52.254;7.988;2023-05-16T11:27:34;2.08;;;1.30;;
47531;SDS011;33273;52.254;7.988;2023-05-16T11:30:14;3.38;;;1.15;;
47531;SDS011;33273;52.254;7.988;2023-05-16T11:32:42;3.90;;;1.23;;
47531;SDS011;33273;52.254;7.988;2023-05-16T11:35:10;5.85;;;1.60;;
47531;SDS011;33273;52.254;7.988;2023-05-16T11:37:38;3.20;;;1.20;;
47531;SDS011;33273;52.254;7.988;2023-05-16T11:40:05;8.68;;;1.40;;
47531;SDS011;33273;52.254;7.988;2023-05-16T11:42:37;5.60;;;1.45;;
47531;SDS011;33273;52.254;7.988;2023-05-16T11:45:04;4.75;;;1.33;;
47531;SDS011;33273;52.254;7.988;2023-05-16T11:47:30;3.53;;;1.15;;
47531;SDS011;33273;52.254;7.988;2023-05-16T11:49:56;4.18;;;1.25;;
47531;SDS011;33273;52.254;7.988;2023-05-16T11:52:23;4.07;;;1.40;;
47531;SDS011;33273;52.254;7.988;2023-05-16T11:57:16;5.55;;;1.30;;
47531;SDS011;33273;52.254;7.988;2023-05-16T11:59:42;4.30;;;1.40;;
47531;SDS011;33273;52.254;7.988;2023-05-16T12:02:08;2.53;;;0.97;;
47531;SDS011;33273;52.254;7.988;2023-05-16T12:04:34;5.40;;;1.45;;
47531;SDS011;33273;52.254;7.988;2023-05-16T12:07:02;4.18;;;0.98;;
47531;SDS011;33273;52.254;7.988;2023-05-16T12:09:29;3.10;;;1.15;;
47531;SDS011;33273;52.254;7.988;2023-05-16T12:11:55;3.50;;;1.20;;
47531;SDS011;33273;52.254;7.988;2023-05-16T12:14:21;4.40;;;1.00;;
47531;SDS011;33273;52.254;7.988;2023-05-16T12:16:48;4.25;;;1.02;;
47531;SDS011;33273;52.254;7.988;2023-05-16T12:19:17;2.13;;;1.00;;
47531;SDS011;33273;52.254;7.988;2023-05-16T12:21:44;3.33;;;1.00;;
47531;SDS011;33273;52.254;7.988;2023-05-16T12:24:10;3.70;;;1.50;;
47531;SDS011;33273;52.254;7.988;2023-05-16T12:26:39;3.90;;;0.93;;
47531;SDS011;33273;52.254;7.988;2023-05-16T12:29:06;4.05;;;1.10;;
47531;SDS011;33273;52.254;7.988;2023-05-16T12:31:36;4.22;;;1.10;;
47531;SDS011;33273;52.254;7.988;2023-05-16T12:34:04;3.42;;;1.27;;
47531;SDS011;33273;52.254;7.988;2023-05-16T12:36:42;2.22;;;0.93;;
47531;SDS011;33273;52.254;7.988;2023-05-16T12:39:26;4.22;;;1.38;;
47531;SDS011;33273;52.254;7.988;2023-05-16T12:42:03;8.30;;;1.35;;
47531;SDS011;33273;52.254;7.988;2023-05-16T12:44:31;4.00;;;1.10;;
47531;SDS011;33273;52.254;7.988;2023-05-16T12:46:59;3.53;;;1.10;;
47531;SDS011;33273;52.254;7.988;2023-05-16T12:49:26;4.85;;;1.65;;
47531;SDS011;33273;52.254;7.988;2023-05-16T12:51:53;3.00;;;1.05;;
47531;SDS011;33273;52.254;7.988;2023-05-16T12:54:21;3.95;;;1.15;;
47531;SDS011;33273;52.254;7.988;2023-05-16T12:56:47;7.75;;;1.35;;
47531;SDS011;33273;52.254;7.988;2023-05-16T12:59:14;3.22;;;1.20;;
47531;SDS011;33273;52.254;7.988;2023-05-16T13:01:40;7.18;;;1.40;;
47531;SDS011;33273;52.254;7.988;2023-05-16T13:04:06;3.83;;;1.00;;
47531;SDS011;33273;52.254;7.988;2023-05-16T13:06:32;4.85;;;1.10;;
47531;SDS011;33273;52.254;7.988;2023-05-16T13:09:00;4.07;;;1.40;;
47531;SDS011;33273;52.254;7.988;2023-05-16T13:11:26;7.17;;;1.50;;
47531;SDS011;33273;52.254;7.988;2023-05-16T13:13:51;4.03;;;1.23;;
47531;SDS011;33273;52.254;7.988;2023-05-16T13:16:17;7.00;;;1.77;;
47531;SDS011;33273;52.254;7.988;2023-05-16T13:18:43;7.45;;;2.45;;
47531;SDS011;33273;52.254;7.988;2023-05-16T13:21:10;5.90;;;1.30;;
47531;SDS011;33273;52.254;7.988;2023-05-16T13:23:36;3.17;;;1.33;;
47531;SDS011;33273;52.254;7.988;2023-05-16T13:26:02;5.97;;;1.60;;
47531;SDS011;33273;52.254;7.988;2023-05-16T13:30:56;6.22;;;1.50;;
47531;SDS011;33273;52.254;7.988;2023-05-16T13:33:22;4.20;;;1.88;;
47531;SDS011;33273;52.254;7.988;2023-05-16T13:38:16;4.18;;;1.15;;
47531;SDS011;33273;52.254;7.988;2023-05-16T13:40:42;7.03;;;2.08;;
47531;SDS011;33273;52.254;7.988;2023-05-16T13:43:08;5.87;;;1.20;;
47531;SDS011;33273;52.254;7.988;2023-05-16T13:45:34;5.40;;;1.45;;
47531;SDS011;33273;52.254;7.988;2023-05-16T13:48:01;5.22;;;1.45;;
47531;SDS011;33273;52.254;7.988;2023-05-16T13:50:28;3.80;;;1.10;;
47531;SDS011;33273;52.254;7.988;2023-05-16T13:52:54;5.07;;;1.33;;
47531;SDS011;33273;52.254;7.988;2023-05-16T13:55:20;3.30;;;1.23;;
47531;SDS011;33273;52.254;7.988;2023-05-16T13:57:46;8.23;;;1.90;;
47531;SDS011;33273;52.254;7.988;2023-05-16T14:00:13;3.35;;;0.90;;
47531;SDS011;33273;52.254;7.988;2023-05-16T14:02:40;7.20;;;1.67;;
47531;SDS011;33273;52.254;7.988;2023-05-16T14:05:07;4.28;;;1.10;;
47531;SDS011;33273;52.254;7.988;2023-05-16T14:07:37;3.50;;;1.10;;
47531;SDS011;33273;52.254;7.988;2023-05-16T14:10:03;8.25;;;1.63;;
47531;SDS011;33273;52.254;7.988;2023-05-16T14:12:30;7.07;;;1.30;;
47531;SDS011;33273;52.254;7.988;2023-05-16T14:14:56;3.75;;;1.52;;
47531;SDS011;33273;52.254;7.988;2023-05-16T14:17:23;7.05;;;1.30;;
47531;SDS011;33273;52.254;7.988;2023-05-16T14:19:49;4.07;;;1.10;;
47531;SDS011;33273;52.254;7.988;2023-05-16T14:22:16;6.80;;;2.10;;
47531;SDS011;33273;52.254;7.988;2023-05-16T14:24:43;6.22;;;1.25;;
47531;SDS011;33273;52.254;7.988;2023-05-16T14:27:12;3.33;;;1.23;;
47531;SDS011;33273;52.254;7.988;2023-05-16T14:29:39;2.67;;;1.17;;
47531;SDS011;33273;52.254;7.988;2023-05-16T14:32:05;7.35;;;1.90;;
47531;SDS011;33273;52.254;7.988;2023-05-16T14:34:35;5.40;;;1.38;;
47531;SDS011;33273;52.254;7.988;2023-05-16T14:37:01;4.43;;;1.33;;
47531;SDS011;33273;52.254;7.988;2023-05-16T14:39:27;6.68;;;1.40;;
47531;SDS011;33273;52.254;7.988;2023-05-16T14:41:53;4.18;;;1.50;;
47531;SDS011;33273;52.254;7.988;2023-05-16T14:44:19;6.28;;;2.00;;
47531;SDS011;33273;52.254;7.988;2023-05-16T14:46:47;6.78;;;1.40;;
47531;SDS011;33273;52.254;7.988;2023-05-16T14:49:14;5.22;;;1.77;;
47531;SDS011;33273;52.254;7.988;2023-05-16T14:51:39;4.90;;;1.45;;
47531;SDS011;33273;52.254;7.988;2023-05-16T14:54:09;6.13;;;1.95;;
47531;SDS011;33273;52.254;7.988;2023-05-16T14:56:34;3.17;;;1.70;;
47531;SDS011;33273;52.254;7.988;2023-05-16T14:59:02;5.30;;;1.50;;
47531;SDS011;33273;52.254;7.988;2023-05-16T15:01:28;8.53;;;2.03;;
47531;SDS011;33273;52.254;7.988;2023-05-16T15:03:54;6.80;;;1.87;;
47531;SDS011;33273;52.254;7.988;2023-05-16T15:06:20;4.27;;;1.47;;
47531;SDS011;33273;52.254;7.988;2023-05-16T15:08:45;4.83;;;1.60;;
47531;SDS011;33273;52.254;7.988;2023-05-16T15:11:14;4.70;;;1.43;;
47531;SDS011;33273;52.254;7.988;2023-05-16T15:13:40;4.55;;;1.50;;
47531;SDS011;33273;52.254;7.988;2023-05-16T15:16:06;4.88;;;1.77;;
47531;SDS011;33273;52.254;7.988;2023-05-16T15:18:32;3.73;;;1.80;;
47531;SDS011;33273;52.254;7.988;2023-05-16T15:20:58;5.53;;;2.08;;
47531;SDS011;33273;52.254;7.988;2023-05-16T15:23:25;5.95;;;1.55;;
47531;SDS011;33273;52.254;7.988;2023-05-16T15:25:51;6.90;;;1.48;;
47531;SDS011;33273;52.254;7.988;2023-05-16T15:28:17;5.10;;;1.80;;
47531;SDS011;33273;52.254;7.988;2023-05-16T15:30:46;5.30;;;1.80;;
47531;SDS011;33273;52.254;7.988;2023-05-16T15:33:12;5.00;;;1.70;;
47531;SDS011;33273;52.254;7.988;2023-05-16T15:35:39;5.82;;;1.80;;
47531;SDS011;33273;52.254;7.988;2023-05-16T15:38:05;3.50;;;1.52;;
47531;SDS011;33273;52.254;7.988;2023-05-16T15:40:32;4.65;;;1.80;;
47531;SDS011;33273;52.254;7.988;2023-05-16T15:43:00;4.07;;;1.98;;